createdAt,value
2018-10-21T00:01:38.047Z,84.90
2018-10-21T00:03:41.731Z,85.90
2018-10-21T00:05:45.264Z,84.50
2018-10-21T00:07:48.774Z,83.90
2018-10-21T00:09:52.298Z,83.90
2018-10-21T00:11:55.829Z,81.50
2018-10-21T00:13:59.430Z,80.10
2018-10-21T00:16:02.937Z,78.90
2018-10-21T00:18:06.541Z,76.80
2018-10-21T00:20:10.090Z,75.40
2018-10-21T00:22:13.618Z,74.20
2018-10-21T00:24:17.159Z,73.70
2018-10-21T00:26:20.691Z,73.70
2018-10-21T00:28:24.241Z,74.30
2018-10-21T00:30:27.883Z,74.20
2018-10-21T00:32:36.750Z,74.00
2018-10-21T00:34:40.416Z,74.10
2018-10-21T00:36:44.028Z,74.20
2018-10-21T00:38:47.571Z,74.70
2018-10-21T00:40:51.205Z,75.70
2018-10-21T00:42:54.743Z,79.20
2018-10-21T00:44:58.354Z,79.60
2018-10-21T00:47:02.170Z,81.10
2018-10-21T00:49:06.167Z,79.00
2018-10-21T00:51:09.836Z,77.30
2018-10-21T00:53:13.370Z,77.90
2018-10-21T00:55:16.997Z,77.00
2018-10-21T00:57:20.558Z,76.00
2018-10-21T00:59:24.125Z,75.30
2018-10-21T01:01:27.674Z,74.70
2018-10-21T01:03:31.163Z,74.30
2018-10-21T01:05:34.682Z,73.80
2018-10-21T01:07:38.346Z,73.90
2018-10-21T01:09:41.832Z,73.20
2018-10-21T01:11:45.440Z,72.50
2018-10-21T01:13:48.934Z,72.00
2018-10-21T01:15:52.461Z,71.70
2018-10-21T01:17:56.941Z,71.50
2018-10-21T01:20:00.550Z,71.50
2018-10-21T01:22:04.213Z,71.50
2018-10-21T01:24:07.979Z,72.10
2018-10-21T01:26:11.574Z,72.30
2018-10-21T01:28:15.168Z,72.10
2018-10-21T01:30:18.754Z,71.70
2018-10-21T01:32:22.498Z,72.00
2018-10-21T01:34:26.044Z,72.20
2018-10-21T01:36:29.900Z,71.90
2018-10-21T01:38:33.281Z,72.00
2018-10-21T01:40:37.981Z,72.00
2018-10-21T01:42:41.604Z,71.90
2018-10-21T01:44:45.100Z,72.90
2018-10-21T01:46:48.802Z,75.00
2018-10-21T01:48:52.306Z,74.70
2018-10-21T01:50:55.919Z,74.00
2018-10-21T01:53:01.469Z,74.20
2018-10-21T01:55:05.245Z,74.30
2018-10-21T01:57:08.787Z,73.50
2018-10-21T01:59:12.348Z,73.30
2018-10-21T02:01:15.870Z,74.30
2018-10-21T02:05:20.793Z,75.50
2018-10-21T02:07:24.343Z,75.30
2018-10-21T02:09:27.859Z,74.90
2018-10-21T02:11:31.535Z,75.10
2018-10-21T02:13:35.055Z,75.60
2018-10-21T02:15:38.553Z,75.30
2018-10-21T02:17:42.284Z,74.70
2018-10-21T02:19:45.778Z,74.30
2018-10-21T02:21:49.328Z,73.60
2018-10-21T02:23:53.050Z,73.30
2018-10-21T02:25:56.611Z,72.80
2018-10-21T02:28:00.151Z,72.50
2018-10-21T02:30:03.999Z,73.30
2018-10-21T02:32:07.716Z,76.10
2018-10-21T02:34:11.209Z,77.50
2018-10-21T02:36:14.977Z,80.70
2018-10-21T02:38:18.543Z,82.50
2018-10-21T02:41:34.156Z,84.20
2018-10-21T02:43:37.689Z,83.60
2018-10-21T02:45:41.237Z,80.10
2018-10-21T02:47:44.857Z,78.80
2018-10-21T02:49:48.536Z,78.00
2018-10-21T02:51:57.603Z,76.20
2018-10-21T02:54:01.402Z,75.10
2018-10-21T02:56:05.147Z,74.10
2018-10-21T02:58:08.653Z,73.80
2018-10-21T03:00:12.310Z,73.60
2018-10-21T03:02:15.911Z,74.20
2018-10-21T03:04:19.647Z,74.20
2018-10-21T03:06:23.269Z,73.40
2018-10-21T03:08:26.961Z,73.30
2018-10-21T03:10:30.702Z,73.40
2018-10-21T03:12:34.240Z,73.20
2018-10-21T03:14:37.781Z,73.00
2018-10-21T03:16:41.291Z,72.80
2018-10-21T03:18:44.803Z,73.50
2018-10-21T03:20:48.491Z,74.70
2018-10-21T03:22:52.000Z,76.30
2018-10-21T03:24:55.586Z,76.50
2018-10-21T03:26:59.225Z,76.90
2018-10-21T03:29:02.770Z,76.70
2018-10-21T03:31:06.293Z,76.50
2018-10-21T03:33:10.204Z,77.20
2018-10-21T03:35:13.663Z,76.30
2018-10-21T03:37:17.320Z,76.30
2018-10-21T03:39:20.939Z,75.70
2018-10-21T03:41:24.502Z,75.40
2018-10-21T03:43:28.095Z,76.20
2018-10-21T03:45:31.628Z,77.30
2018-10-21T03:47:35.162Z,76.90
2018-10-21T03:49:38.710Z,76.90
2018-10-21T03:51:42.295Z,76.20
2018-10-21T03:53:45.894Z,77.10
2018-10-21T03:55:49.657Z,76.30
2018-10-21T03:57:53.496Z,75.30
2018-10-21T03:59:57.020Z,75.20
2018-10-21T04:02:00.529Z,74.90
2018-10-21T04:04:04.144Z,74.80
2018-10-21T04:06:07.712Z,74.70
2018-10-21T04:08:11.257Z,75.30
2018-10-21T04:10:15.506Z,75.60
2018-10-21T04:12:19.104Z,75.90
2018-10-21T04:14:22.596Z,77.00
2018-10-21T04:16:26.116Z,80.30
2018-10-21T04:18:29.631Z,80.50
2018-10-21T04:20:33.310Z,79.10
2018-10-21T04:23:08.506Z,80.00
2018-10-21T04:25:12.080Z,79.20
2018-10-21T04:27:15.603Z,77.70
2018-10-21T04:29:19.119Z,77.00
2018-10-21T04:31:22.677Z,76.00
2018-10-21T04:33:42.188Z,75.30
2018-10-21T04:35:45.703Z,75.00
2018-10-21T04:38:32.492Z,74.50
2018-10-21T04:40:36.015Z,74.30
2018-10-21T04:42:39.551Z,74.10
2018-10-21T04:44:43.313Z,74.10
2018-10-21T04:46:46.930Z,73.70
2018-10-21T04:48:50.498Z,73.00
2018-10-21T04:50:54.067Z,72.80
2018-10-21T04:52:57.757Z,73.50
2018-10-21T04:55:06.654Z,73.30
2018-10-21T04:57:10.161Z,74.50
2018-10-21T04:59:13.812Z,75.10
2018-10-21T05:01:17.317Z,75.00
2018-10-21T05:03:20.987Z,74.90
2018-10-21T05:05:24.550Z,74.80
2018-10-21T05:07:28.184Z,74.70
2018-10-21T05:09:31.656Z,74.50
2018-10-21T05:11:35.335Z,74.10
2018-10-21T05:13:39.076Z,73.20
2018-10-21T05:15:42.618Z,73.20
2018-10-21T05:17:46.140Z,73.40
2018-10-21T05:19:49.659Z,73.60
2018-10-21T05:21:59.883Z,73.50
2018-10-21T05:24:03.483Z,73.00
2018-10-21T05:26:06.984Z,72.50
2018-10-21T05:28:10.673Z,72.10
2018-10-21T05:30:14.586Z,71.90
2018-10-21T05:32:18.191Z,72.10
2018-10-21T05:34:21.718Z,72.20
2018-10-21T05:36:25.248Z,72.10
2018-10-21T05:38:28.769Z,72.00
2018-10-21T05:40:32.339Z,71.90
2018-10-21T05:42:36.029Z,72.20
2018-10-21T05:44:39.536Z,72.10
2018-10-21T05:46:46.712Z,71.70
2018-10-21T05:48:50.136Z,73.00
2018-10-21T05:50:53.822Z,72.50
2018-10-21T05:52:57.358Z,72.50
2018-10-21T05:55:00.855Z,72.40
2018-10-21T05:57:04.368Z,72.50
2018-10-21T05:59:08.215Z,72.30
2018-10-21T06:01:11.731Z,71.90
2018-10-21T06:03:15.329Z,71.60
2018-10-21T06:05:33.771Z,71.50
2018-10-21T06:07:37.311Z,71.50
2018-10-21T06:09:40.824Z,71.40
2018-10-21T06:11:44.414Z,71.40
2018-10-21T06:13:47.968Z,71.30
2018-10-21T06:15:51.602Z,71.10
2018-10-21T06:17:55.130Z,72.30
2018-10-21T06:20:15.753Z,72.50
2018-10-21T06:22:19.333Z,72.20
2018-10-21T06:24:22.995Z,71.90
2018-10-21T06:26:26.520Z,72.00
2018-10-21T06:28:30.040Z,73.30
2018-10-21T06:30:33.579Z,74.20
2018-10-21T06:32:37.144Z,74.90
2018-10-21T06:34:40.853Z,74.90
2018-10-21T06:36:44.488Z,76.00
2018-10-21T06:38:48.034Z,76.90
2018-10-21T06:40:51.573Z,75.70
2018-10-21T06:42:55.147Z,74.60
2018-10-21T06:44:58.948Z,74.70
2018-10-21T06:47:02.512Z,74.10
2018-10-21T06:49:06.204Z,73.80
2018-10-21T06:51:09.790Z,73.40
2018-10-21T06:53:13.328Z,72.80
2018-10-21T06:55:16.967Z,72.70
2018-10-21T06:57:20.754Z,72.90
2018-10-21T06:59:24.013Z,72.60
2018-10-21T07:01:27.881Z,73.60
2018-10-21T07:03:31.531Z,73.10
2018-10-21T07:06:41.115Z,73.70
2018-10-21T07:08:45.262Z,73.80
2018-10-21T07:10:48.804Z,73.60
2018-10-21T07:12:52.539Z,74.30
2018-10-21T07:14:56.075Z,74.40
2018-10-21T07:16:59.764Z,75.00
2018-10-21T07:19:03.376Z,74.30
2018-10-21T07:21:07.006Z,74.40
2018-10-21T07:23:10.613Z,74.10
2018-10-21T07:25:14.451Z,73.40
2018-10-21T07:27:18.023Z,73.20
2018-10-21T07:29:21.580Z,73.50
2018-10-21T07:31:25.091Z,73.70
2018-10-21T07:33:28.873Z,73.10
2018-10-21T07:35:32.399Z,72.90
2018-10-21T07:37:35.968Z,73.60
2018-10-21T07:39:40.129Z,73.40
2018-10-21T07:41:44.203Z,72.80
2018-10-21T07:43:47.960Z,72.90
2018-10-21T07:45:51.603Z,72.70
2018-10-21T07:47:55.214Z,72.30
2018-10-21T07:49:58.934Z,72.60
2018-10-21T07:52:02.584Z,72.10
2018-10-21T07:54:06.560Z,72.00
2018-10-21T07:56:10.180Z,72.20
2018-10-21T07:58:13.870Z,71.60
2018-10-21T08:00:17.871Z,71.10
2018-10-21T08:02:21.525Z,71.10
2018-10-21T08:04:25.029Z,70.50
2018-10-21T08:06:39.474Z,70.40
2018-10-21T08:08:43.073Z,70.10
2018-10-21T08:10:46.568Z,70.00
2018-10-21T08:12:50.227Z,71.00
2018-10-21T08:14:53.845Z,70.50
2018-10-21T08:16:57.589Z,70.70
2018-10-21T08:19:01.128Z,71.30
2018-10-21T08:21:04.763Z,70.60
2018-10-21T08:23:09.763Z,70.30
2018-10-21T08:25:13.365Z,70.90
2018-10-21T08:27:17.021Z,70.60
2018-10-21T08:29:20.513Z,70.90
2018-10-21T08:31:24.186Z,70.50
2018-10-21T08:33:27.720Z,71.10
2018-10-21T08:35:31.210Z,71.40
2018-10-21T08:37:34.912Z,70.10
2018-10-21T08:39:38.433Z,70.20
2018-10-21T08:41:41.971Z,70.10
2018-10-21T08:43:45.640Z,69.80
2018-10-21T08:45:49.208Z,69.40
2018-10-21T08:47:52.752Z,69.50
2018-10-21T08:49:56.383Z,69.40
2018-10-21T08:52:06.460Z,68.90
2018-10-21T08:54:09.942Z,70.10
2018-10-21T08:56:13.465Z,70.00
2018-10-21T08:58:17.052Z,70.50
2018-10-21T09:00:20.759Z,71.00
2018-10-21T09:02:24.398Z,70.90
2018-10-21T09:04:28.168Z,69.60
2018-10-21T09:06:31.711Z,70.20
2018-10-21T09:08:35.334Z,68.90
2018-10-21T09:10:39.084Z,68.60
2018-10-21T09:12:42.738Z,69.00
2018-10-21T09:14:47.027Z,68.40
2018-10-21T09:16:50.789Z,68.10
2018-10-21T09:18:54.378Z,67.00
2018-10-21T09:20:58.054Z,66.60
2018-10-21T09:23:01.568Z,66.90
2018-10-21T09:25:05.672Z,67.20
2018-10-21T09:27:09.263Z,65.90
2018-10-21T09:29:12.814Z,65.40
2018-10-21T09:31:16.459Z,66.30
2018-10-21T09:33:20.030Z,65.70
2018-10-21T09:35:23.535Z,66.50
2018-10-21T09:37:27.096Z,66.50
2018-10-21T09:39:30.745Z,65.90
2018-10-21T09:41:34.452Z,67.60
2018-10-21T09:43:38.000Z,67.10
2018-10-21T09:45:41.584Z,65.80
2018-10-21T09:47:45.528Z,65.00
2018-10-21T09:49:49.152Z,64.80
2018-10-21T09:51:52.656Z,64.50
2018-10-21T09:53:56.156Z,64.20
2018-10-21T09:55:59.683Z,63.00
2018-10-21T09:58:03.341Z,62.50
2018-10-21T10:00:06.976Z,63.00
2018-10-21T10:02:15.940Z,62.80
2018-10-21T10:04:19.644Z,62.30
2018-10-21T10:06:23.173Z,62.10
2018-10-21T10:08:26.692Z,62.80
2018-10-21T10:10:30.353Z,63.90
2018-10-21T10:12:33.887Z,63.00
2018-10-21T10:14:37.510Z,62.00
2018-10-21T10:16:41.195Z,61.60
2018-10-21T10:18:44.810Z,61.60
2018-10-21T10:20:48.319Z,62.00
2018-10-21T10:22:51.829Z,60.80
2018-10-21T10:24:55.376Z,59.20
2018-10-21T10:26:58.879Z,59.10
2018-10-21T10:29:02.393Z,59.60
2018-10-21T10:31:06.257Z,59.20
2018-10-21T10:33:09.805Z,57.50
2018-10-21T10:35:14.373Z,58.00
2018-10-21T10:37:18.016Z,59.40
2018-10-21T10:39:21.553Z,57.60
2018-10-21T10:41:25.168Z,57.90
2018-10-21T10:43:28.856Z,58.40
2018-10-21T10:45:32.380Z,58.40
2018-10-21T10:47:36.109Z,57.60
2018-10-21T10:49:39.749Z,58.50
2018-10-21T10:51:43.378Z,58.20
2018-10-21T10:53:47.021Z,58.70
2018-10-21T10:55:51.730Z,59.30
2018-10-21T10:57:55.316Z,58.30
2018-10-21T10:59:59.005Z,59.00
2018-10-21T11:02:02.314Z,59.10
2018-10-21T11:04:05.843Z,58.40
2018-10-21T11:06:09.368Z,58.70
2018-10-21T11:08:12.880Z,58.80
2018-10-21T11:10:16.480Z,58.10
2018-10-21T11:12:20.074Z,58.20
2018-10-21T11:14:23.672Z,57.30
2018-10-21T11:16:27.447Z,56.80
2018-10-21T11:18:31.111Z,56.40
2018-10-21T11:20:34.673Z,56.40
2018-10-21T11:22:38.455Z,57.70
2018-10-21T11:24:47.078Z,57.10
2018-10-21T11:26:50.812Z,57.90
2018-10-21T11:28:54.396Z,57.10
2018-10-21T11:30:57.980Z,57.10
2018-10-21T11:33:01.472Z,57.00
2018-10-21T11:35:05.785Z,56.60
2018-10-21T11:37:09.799Z,56.30
2018-10-21T11:39:13.281Z,56.10
2018-10-21T11:41:16.877Z,56.90
2018-10-21T11:45:19.235Z,57.30
2018-10-21T11:47:22.746Z,57.20
2018-10-21T11:49:26.305Z,57.60
2018-10-21T11:51:29.897Z,57.30
2018-10-21T11:53:33.462Z,57.50
2018-10-21T11:55:41.959Z,56.80
2018-10-21T11:57:45.459Z,57.40
2018-10-21T11:59:48.994Z,57.00
2018-10-21T12:01:52.707Z,57.70
2018-10-21T12:03:56.281Z,57.50
2018-10-21T12:05:59.969Z,56.80
2018-10-21T12:08:03.593Z,56.70
2018-10-21T12:10:07.772Z,56.80
2018-10-21T12:12:11.344Z,55.10
2018-10-21T12:14:14.868Z,55.90
2018-10-21T12:16:18.443Z,55.00
2018-10-21T12:18:21.904Z,54.70
2018-10-21T12:20:25.433Z,54.80
2018-10-21T12:22:29.274Z,54.40
2018-10-21T12:24:32.763Z,54.40
2018-10-21T12:26:36.377Z,55.00
2018-10-21T12:28:39.954Z,55.00
2018-10-21T12:30:43.703Z,54.10
2018-10-21T12:32:47.276Z,54.20
2018-10-21T12:34:50.822Z,53.00
2018-10-21T12:36:54.468Z,53.10
2018-10-21T12:38:58.053Z,53.00
2018-10-21T12:41:01.627Z,52.80
2018-10-21T12:43:05.273Z,52.90
2018-10-21T12:45:10.380Z,52.30
2018-10-21T12:47:13.878Z,51.30
2018-10-21T12:49:17.498Z,52.40
2018-10-21T12:51:20.979Z,53.60
2018-10-21T12:53:24.617Z,53.40
2018-10-21T12:55:28.133Z,53.20
2018-10-21T12:57:31.684Z,52.80
2018-10-21T12:59:35.199Z,52.30
2018-10-21T13:01:38.862Z,51.60
2018-10-21T13:03:42.398Z,52.00
2018-10-21T13:05:46.004Z,52.00
2018-10-21T13:07:49.671Z,51.70
2018-10-21T13:09:53.290Z,51.80
2018-10-21T13:11:56.983Z,51.80
2018-10-21T13:14:00.644Z,51.30
2018-10-21T13:16:04.308Z,52.40
2018-10-21T13:18:07.786Z,52.50
2018-10-21T13:20:11.285Z,52.60
2018-10-21T13:22:15.023Z,52.70
2018-10-21T13:24:18.462Z,52.50
2018-10-21T13:26:22.041Z,52.30
2018-10-21T13:28:25.840Z,53.20
2018-10-21T13:30:29.309Z,52.10
2018-10-21T13:32:32.815Z,51.90
2018-10-21T13:34:36.408Z,51.50
2018-10-21T13:36:39.896Z,52.50
2018-10-21T13:38:43.424Z,52.90
2018-10-21T13:40:47.021Z,52.60
2018-10-21T13:42:50.596Z,52.30
2018-10-21T13:44:54.332Z,51.60
2018-10-21T13:46:58.023Z,51.40
2018-10-21T13:49:01.603Z,51.20
2018-10-21T13:51:05.704Z,51.40
2018-10-21T13:53:09.339Z,50.70
2018-10-21T13:55:13.363Z,50.30
2018-10-21T13:57:16.900Z,50.60
2018-10-21T13:59:20.419Z,49.20
2018-10-21T14:01:24.163Z,48.90
2018-10-21T14:03:27.633Z,49.70
2018-10-21T14:05:31.241Z,49.30
2018-10-21T14:07:34.934Z,50.20
2018-10-21T14:09:38.696Z,50.20
2018-10-21T14:11:42.368Z,49.90
2018-10-21T14:13:45.989Z,49.90
2018-10-21T14:15:49.587Z,50.90
2018-10-21T14:17:53.141Z,50.60
2018-10-21T14:19:56.673Z,50.30
2018-10-21T14:22:00.254Z,50.10
2018-10-21T14:24:03.806Z,50.20
2018-10-21T14:26:07.364Z,50.40
2018-10-21T14:28:10.961Z,50.10
2018-10-21T14:30:14.572Z,50.00
2018-10-21T14:32:18.146Z,49.90
2018-10-21T14:34:21.772Z,49.90
2018-10-21T14:36:25.285Z,49.10
2018-10-21T14:38:28.996Z,48.90
2018-10-21T14:40:32.423Z,48.30
2018-10-21T14:42:36.103Z,48.70
2018-10-21T14:44:39.675Z,48.90
2018-10-21T14:46:43.167Z,49.20
2018-10-21T14:48:46.719Z,48.80
2018-10-21T14:50:50.245Z,48.80
2018-10-21T14:52:53.753Z,48.20
2018-10-21T14:54:57.316Z,49.20
2018-10-21T14:57:01.077Z,50.10
2018-10-21T14:59:04.555Z,49.90
2018-10-21T15:01:08.136Z,49.70
2018-10-21T15:03:12.012Z,49.80
2018-10-21T15:05:15.340Z,49.70
2018-10-21T15:07:18.967Z,49.80
2018-10-21T15:09:22.581Z,49.60
2018-10-21T15:11:26.324Z,49.60
2018-10-21T15:13:30.078Z,49.40
2018-10-21T15:15:33.622Z,49.70
2018-10-21T15:17:37.260Z,49.30
2018-10-21T15:19:41.035Z,49.40
2018-10-21T15:21:44.664Z,49.50
2018-10-21T15:23:48.188Z,49.70
2018-10-21T15:25:51.744Z,49.50
2018-10-21T15:27:55.275Z,49.90
2018-10-21T15:29:58.931Z,49.50
2018-10-21T15:32:02.497Z,50.00
2018-10-21T15:34:06.066Z,50.00
2018-10-21T15:36:09.659Z,49.70
2018-10-21T15:38:13.275Z,49.60
2018-10-21T15:40:16.767Z,49.40
2018-10-21T15:42:20.256Z,49.80
2018-10-21T15:44:23.808Z,49.50
2018-10-21T15:46:27.362Z,49.00
2018-10-21T15:48:31.015Z,49.40
2018-10-21T15:50:34.853Z,50.00
2018-10-21T15:52:38.364Z,49.80
2018-10-21T15:54:41.929Z,49.70
2018-10-21T15:56:45.582Z,49.80
2018-10-21T15:58:49.338Z,50.20
2018-10-21T16:00:52.921Z,50.40
2018-10-21T16:02:56.476Z,50.60
2018-10-21T16:05:00.041Z,50.90
2018-10-21T16:07:03.885Z,51.10
2018-10-21T16:09:10.047Z,50.90
2018-10-21T16:11:13.584Z,51.00
2018-10-21T16:13:17.179Z,51.00
2018-10-21T16:15:20.712Z,50.70
2018-10-21T16:17:24.229Z,50.70
2018-10-21T16:19:28.318Z,50.90
2018-10-21T16:21:31.829Z,51.20
2018-10-21T16:23:35.348Z,51.10
2018-10-21T16:25:39.161Z,51.00
2018-10-21T16:27:42.888Z,51.40
2018-10-21T16:29:46.441Z,51.60
2018-10-21T16:31:50.054Z,51.30
2018-10-21T16:33:53.591Z,51.30
2018-10-21T16:35:57.175Z,51.60
2018-10-21T16:38:00.820Z,52.20
2018-10-21T16:40:04.475Z,51.30
2018-10-21T16:42:08.021Z,52.40
2018-10-21T16:44:11.671Z,52.60
2018-10-21T16:46:15.198Z,52.50
2018-10-21T16:48:18.738Z,52.40
2018-10-21T16:50:22.226Z,52.70
2018-10-21T16:52:25.794Z,53.60
2018-10-21T16:54:29.492Z,53.50
2018-10-21T16:56:33.216Z,53.30
2018-10-21T16:58:36.760Z,53.10
2018-10-21T17:00:40.533Z,53.10
2018-10-21T17:02:44.104Z,53.60
2018-10-21T17:04:48.008Z,53.60
2018-10-21T17:06:51.539Z,53.60
2018-10-21T17:08:55.156Z,53.90
2018-10-21T17:10:58.904Z,53.70
2018-10-21T17:13:02.371Z,54.20
2018-10-21T17:15:07.150Z,54.60
2018-10-21T17:17:10.911Z,55.40
2018-10-21T17:19:14.523Z,54.90
2018-10-21T17:21:18.129Z,55.80
2018-10-21T17:23:21.740Z,56.10
2018-10-21T17:25:25.358Z,56.20
2018-10-21T17:27:28.898Z,56.30
2018-10-21T17:29:32.487Z,56.30
2018-10-21T17:31:36.026Z,56.60
2018-10-21T17:33:39.597Z,56.70
2018-10-21T17:35:43.113Z,57.00
2018-10-21T17:37:46.755Z,57.00
2018-10-21T17:39:50.350Z,57.00
2018-10-21T17:41:54.021Z,57.70
2018-10-21T17:43:57.688Z,58.10
2018-10-21T17:46:01.273Z,57.90
2018-10-21T17:48:05.452Z,58.00
2018-10-21T17:50:10.384Z,58.00
2018-10-21T17:52:14.150Z,57.30
2018-10-21T17:54:17.595Z,57.80
2018-10-21T17:56:21.270Z,58.00
2018-10-21T17:58:25.103Z,58.10
2018-10-21T18:00:28.616Z,58.10
2018-10-21T18:02:32.172Z,58.30
2018-10-21T18:04:35.756Z,58.70
2018-10-21T18:06:39.509Z,58.60
2018-10-21T18:08:43.180Z,58.70
2018-10-21T18:10:46.724Z,58.60
2018-10-21T18:12:50.266Z,58.60
2018-10-21T18:14:53.976Z,58.80
2018-10-21T18:16:57.495Z,59.30
2018-10-21T18:19:01.392Z,59.20
2018-10-21T18:21:05.236Z,59.20
2018-10-21T18:23:08.934Z,59.70
2018-10-21T18:25:12.556Z,59.40
2018-10-21T18:27:16.148Z,59.70
2018-10-21T18:29:19.740Z,59.40
2018-10-21T18:31:23.344Z,59.50
2018-10-21T18:33:26.941Z,59.90
2018-10-21T18:35:30.484Z,60.10
2018-10-21T18:37:34.040Z,59.60
2018-10-21T18:39:37.770Z,59.70
2018-10-21T18:41:41.463Z,59.80
2018-10-21T18:43:45.022Z,60.00
2018-10-21T18:45:48.624Z,59.80
2018-10-21T18:47:52.409Z,59.60
2018-10-21T18:49:56.077Z,59.80
2018-10-21T18:51:59.705Z,60.00
2018-10-21T18:54:03.428Z,60.20
2018-10-21T18:56:06.960Z,60.10
2018-10-21T18:58:10.592Z,60.00
2018-10-21T19:00:16.502Z,60.30
2018-10-21T19:02:20.075Z,60.10
2018-10-21T19:04:23.615Z,60.60
2018-10-21T19:06:27.279Z,59.60
2018-10-21T19:08:30.848Z,59.80
2018-10-21T19:10:34.368Z,59.80
2018-10-21T19:12:38.186Z,60.00
2018-10-21T19:14:41.769Z,60.10
2018-10-21T19:16:45.361Z,60.40
2018-10-21T19:18:48.968Z,60.20
2018-10-21T19:20:52.561Z,60.40
2018-10-21T19:22:56.076Z,60.30
2018-10-21T19:24:59.830Z,60.00
2018-10-21T19:27:03.513Z,60.00
2018-10-21T19:29:07.175Z,59.90
2018-10-21T19:31:10.780Z,60.10
2018-10-21T19:33:14.448Z,60.40
2018-10-21T19:35:18.238Z,60.40
2018-10-21T19:37:21.782Z,61.00
2018-10-21T19:39:25.442Z,60.40
2018-10-21T19:41:28.996Z,60.50
2018-10-21T19:43:32.666Z,60.50
2018-10-21T19:45:36.096Z,60.80
2018-10-21T19:47:39.945Z,60.70
2018-10-21T19:49:43.585Z,60.80
2018-10-21T19:51:47.358Z,61.00
2018-10-21T19:53:50.969Z,60.90
2018-10-21T19:55:54.738Z,60.90
2018-10-21T19:57:58.347Z,60.90
2018-10-21T20:00:01.928Z,60.50
2018-10-21T20:02:05.791Z,61.20
2018-10-21T20:04:09.435Z,60.60
2018-10-21T20:06:13.196Z,60.50
2018-10-21T20:08:16.877Z,60.60
2018-10-21T20:10:20.549Z,60.60
2018-10-21T20:12:24.187Z,60.80
2018-10-21T20:14:27.773Z,60.80
2018-10-21T20:16:31.451Z,60.70
2018-10-21T20:18:35.015Z,60.90
2018-10-21T20:20:38.721Z,61.00
2018-10-21T20:22:42.322Z,61.00
2018-10-21T20:24:46.104Z,61.40
2018-10-21T20:26:49.773Z,60.90
2018-10-21T20:28:53.362Z,60.90
2018-10-21T20:30:57.276Z,60.90
2018-10-21T20:33:00.820Z,60.90
2018-10-21T20:35:05.000Z,61.10
2018-10-21T20:37:08.789Z,60.90
2018-10-21T20:39:12.363Z,61.10
2018-10-21T20:41:16.033Z,61.40
2018-10-21T20:43:19.602Z,61.40
2018-10-21T20:45:23.153Z,61.40
2018-10-21T20:47:26.691Z,61.50
2018-10-21T20:49:30.423Z,61.80
2018-10-21T20:51:34.124Z,62.00
2018-10-21T20:53:37.624Z,61.90
2018-10-21T20:55:41.271Z,62.20
2018-10-21T20:57:44.898Z,62.60
2018-10-21T20:59:48.622Z,62.30
2018-10-21T21:01:52.188Z,62.10
2018-10-21T21:03:55.737Z,61.90
2018-10-21T21:05:59.271Z,61.60
2018-10-21T21:08:02.891Z,61.30
2018-10-21T21:10:13.162Z,61.20
2018-10-21T21:12:16.741Z,61.10
2018-10-21T21:14:20.348Z,61.00
2018-10-21T21:16:23.975Z,61.00
2018-10-21T21:18:27.535Z,61.20
2018-10-21T21:20:31.205Z,62.00
2018-10-21T21:22:34.970Z,61.80
2018-10-21T21:24:38.710Z,62.20
2018-10-21T21:26:42.217Z,61.70
2018-10-21T21:28:45.788Z,61.70
2018-10-21T21:30:49.594Z,61.30
2018-10-21T21:32:53.092Z,61.50
2018-10-21T21:34:56.676Z,62.10
2018-10-21T21:37:00.249Z,62.10
2018-10-21T21:39:05.058Z,62.50
2018-10-21T21:41:08.644Z,62.20
2018-10-21T21:43:12.201Z,62.40
2018-10-21T21:45:15.811Z,62.30
2018-10-21T21:47:19.534Z,62.40
2018-10-21T21:49:23.031Z,62.40
2018-10-21T21:51:26.528Z,62.40
2018-10-21T21:53:30.056Z,61.80
2018-10-21T21:55:33.584Z,61.70
2018-10-21T21:57:37.310Z,62.10
2018-10-21T21:59:40.815Z,62.90
2018-10-21T22:01:44.428Z,63.60
2018-10-21T22:03:48.444Z,64.00
2018-10-21T22:05:51.972Z,63.70
2018-10-21T22:07:55.573Z,63.40
2018-10-21T22:09:59.196Z,62.90
2018-10-21T22:12:02.746Z,62.80
2018-10-21T22:14:06.688Z,62.90
2018-10-21T22:16:10.396Z,62.80
2018-10-21T22:18:14.044Z,63.20
2018-10-21T22:20:17.516Z,62.50
2018-10-21T22:22:21.068Z,62.60
2018-10-21T22:24:24.752Z,62.90
2018-10-21T22:26:28.409Z,63.20
2018-10-21T22:28:32.047Z,63.20
2018-10-21T22:30:35.641Z,63.00
2018-10-21T22:32:39.273Z,63.00
2018-10-21T22:34:42.947Z,62.80
2018-10-21T22:36:46.502Z,62.90
2018-10-21T22:38:50.191Z,62.90
2018-10-21T22:40:53.740Z,62.80
2018-10-21T22:42:57.295Z,62.60
2018-10-21T22:45:00.995Z,63.10
2018-10-21T22:47:04.619Z,62.40
2018-10-21T22:49:08.255Z,62.20
2018-10-21T22:51:11.768Z,62.30
2018-10-21T22:53:15.340Z,62.20
2018-10-21T22:55:19.001Z,62.10
2018-10-21T22:57:22.553Z,62.60
2018-10-21T22:59:26.300Z,62.60
2018-10-21T23:01:29.858Z,62.60
2018-10-21T23:03:33.575Z,62.20
2018-10-21T23:05:37.088Z,62.00
2018-10-21T23:07:40.631Z,62.10
2018-10-21T23:09:44.270Z,62.50
2018-10-21T23:11:47.867Z,62.40
2018-10-21T23:13:51.392Z,63.50
2018-10-21T23:15:55.182Z,63.50
2018-10-21T23:17:58.727Z,62.80
2018-10-21T23:20:02.283Z,62.60
2018-10-21T23:22:06.011Z,62.40
2018-10-21T23:24:09.569Z,62.40
2018-10-21T23:26:13.225Z,62.60
2018-10-21T23:28:16.955Z,62.80
2018-10-21T23:30:20.566Z,62.90
2018-10-21T23:32:24.056Z,62.80
2018-10-21T23:34:28.058Z,62.60
2018-10-21T23:36:31.575Z,62.40
2018-10-21T23:38:35.141Z,62.50
2018-10-21T23:40:38.784Z,63.00
2018-10-21T23:42:42.298Z,64.60
2018-10-21T23:44:45.863Z,64.60
2018-10-21T23:46:50.242Z,64.30
2018-10-21T23:48:53.757Z,63.60
2018-10-21T23:50:57.328Z,63.40
2018-10-21T23:53:00.936Z,63.10
2018-10-21T23:55:04.605Z,62.70
2018-10-21T23:57:08.383Z,62.70
2018-10-21T23:59:12.428Z,63.10
